Time;durP1;ratioP1;P1;durP2;ratioP2;P2;SDS_P1;SDS_P2;PMS_P1;PMS_P2;Temp;Humidity;BMP_temperature;BMP_pressure;BME280_temperature;BME280_humidity;BME280_pressure;Samples;Min_cycle;Max_cycle;Signal;HPM_P1;HPM_P2
2022/08/30 00:01:04;;;;;;;5.35;3.30;;;;;;;;;;5045240;28;20029;-53
2022/08/30 00:03:32;;;;;;;8.35;3.13;;;;;;;;;;5042214;28;20067;-55
2022/08/30 00:05:58;;;;;;;4.07;3.28;;;;;;;;;;5045465;28;20025;-51
2022/08/30 00:08:24;;;;;;;6.35;4.03;;;;;;;;;;5045525;28;20040;-51
2022/08/30 00:10:50;;;;;;;6.05;3.25;;;;;;;;;;5044430;28;20036;-52
2022/08/30 00:13:17;;;;;;;4.75;3.40;;;;;;;;;;5043111;28;20028;-54
2022/08/30 00:15:44;;;;;;;3.83;3.42;;;;;;;;;;5047615;28;20028;-54
2022/08/30 00:18:09;;;;;;;4.85;3.22;;;;;;;;;;5045473;28;20036;-55
2022/08/30 00:20:36;;;;;;;4.47;3.35;;;;;;;;;;5039535;28;20021;-56
2022/08/30 00:23:03;;;;;;;5.47;3.20;;;;;;;;;;5046010;28;20381;-51
2022/08/30 00:25:29;;;;;;;4.15;3.30;;;;;;;;;;5043119;28;20064;-57
2022/08/30 00:27:55;;;;;;;9.88;4.07;;;;;;;;;;5043880;28;20060;-56
2022/08/30 00:30:21;;;;;;;8.45;4.22;;;;;;;;;;5046450;28;20477;-50
2022/08/30 00:32:47;;;;;;;6.03;3.50;;;;;;;;;;5051067;28;20039;-53
2022/08/30 00:35:17;;;;;;;4.60;3.75;;;;;;;;;;5048132;28;20033;-51
2022/08/30 00:37:43;;;;;;;7.65;3.42;;;;;;;;;;5049881;28;20087;-54
2022/08/30 00:40:10;;;;;;;4.43;3.60;;;;;;;;;;5049630;28;20033;-55
2022/08/30 00:42:37;;;;;;;5.80;3.47;;;;;;;;;;5045554;28;20042;-51
2022/08/30 00:45:23;;;;;;;11.65;3.75;;;;;;;;;;5050148;28;20017;-55
2022/08/30 00:47:50;;;;;;;6.15;3.88;;;;;;;;;;5048955;28;20020;-54
2022/08/30 00:50:19;;;;;;;7.53;3.45;;;;;;;;;;5048433;28;20074;-52
2022/08/30 00:52:48;;;;;;;6.45;3.15;;;;;;;;;;5049214;28;20384;-53
2022/08/30 00:55:16;;;;;;;8.23;3.63;;;;;;;;;;5046104;28;20057;-54
2022/08/30 00:57:44;;;;;;;5.82;3.42;;;;;;;;;;5047096;28;20028;-53
2022/08/30 01:00:12;;;;;;;3.17;2.88;;;;;;;;;;5046456;28;20041;-52
2022/08/30 01:02:37;;;;;;;3.60;2.92;;;;;;;;;;5050595;28;20036;-58
2022/08/30 01:05:07;;;;;;;4.60;3.33;;;;;;;;;;5048701;28;20017;-54
2022/08/30 01:07:33;;;;;;;5.55;3.83;;;;;;;;;;5049749;28;20029;-53
2022/08/30 01:10:00;;;;;;;7.80;3.10;;;;;;;;;;5047664;28;20040;-53
2022/08/30 01:12:28;;;;;;;7.05;3.33;;;;;;;;;;5047747;28;20428;-53
2022/08/30 01:14:55;;;;;;;5.72;2.90;;;;;;;;;;5049105;28;20120;-51
2022/08/30 01:17:21;;;;;;;3.42;3.15;;;;;;;;;;5046145;28;20031;-52
2022/08/30 01:19:59;;;;;;;6.43;3.00;;;;;;;;;;5048170;28;20034;-53
2022/08/30 01:22:47;;;;;;;4.07;2.70;;;;;;;;;;5045759;28;20025;-54
2022/08/30 01:25:16;;;;;;;4.57;2.53;;;;;;;;;;5057168;28;20037;-55
2022/08/30 01:27:46;;;;;;;4.85;2.80;;;;;;;;;;5049356;28;20025;-54
2022/08/30 01:30:13;;;;;;;3.75;2.80;;;;;;;;;;5046355;28;20127;-55
2022/08/30 01:32:43;;;;;;;3.13;2.53;;;;;;;;;;5046318;28;20129;-51
2022/08/30 01:35:15;;;;;;;3.50;2.70;;;;;;;;;;5047113;28;20381;-53
2022/08/30 01:37:43;;;;;;;;;;;;;;;;;;5047215;28;20072;-52
2022/08/30 01:40:09;;;;;;;6.38;2.80;;;;;;;;;;5046300;28;20043;-52
2022/08/30 01:42:35;;;;;;;4.65;2.50;;;;;;;;;;5046234;28;20542;-56
2022/08/30 01:45:03;;;;;;;7.22;2.60;;;;;;;;;;5050354;28;20113;-55
2022/08/30 01:47:29;;;;;;;6.45;3.00;;;;;;;;;;5046095;28;20117;-51
2022/08/30 01:49:55;;;;;;;11.38;3.20;;;;;;;;;;5044588;28;20514;-56
2022/08/30 01:52:20;;;;;;;7.93;3.35;;;;;;;;;;5049077;28;20048;-51
2022/08/30 01:54:46;;;;;;;5.13;3.05;;;;;;;;;;5044956;28;20114;-54
2022/08/30 01:57:16;;;;;;;3.92;3.13;;;;;;;;;;5045738;28;20044;-52
2022/08/30 01:59:46;;;;;;;3.15;2.95;;;;;;;;;;5043018;28;20037;-54
2022/08/30 02:02:14;;;;;;;8.07;2.88;;;;;;;;;;5047803;28;20044;-54
2022/08/30 02:04:41;;;;;;;8.23;3.03;;;;;;;;;;5047338;28;20667;-53
2022/08/30 02:07:07;;;;;;;4.68;3.00;;;;;;;;;;5044783;28;20021;-55
2022/08/30 02:09:33;;;;;;;3.80;3.00;;;;;;;;;;5044870;28;20751;-54
2022/08/30 02:11:58;;;;;;;6.22;3.15;;;;;;;;;;5047659;28;20086;-54
2022/08/30 02:14:24;;;;;;;3.42;3.03;;;;;;;;;;5043637;28;20033;-51
2022/08/30 02:16:50;;;;;;;4.47;2.97;;;;;;;;;;5047475;28;20090;-54
2022/08/30 02:19:16;;;;;;;5.78;3.38;;;;;;;;;;5046710;28;20055;-54
2022/08/30 02:21:42;;;;;;;5.65;3.35;;;;;;;;;;5046261;28;20478;-53
2022/08/30 02:24:08;;;;;;;4.38;2.90;;;;;;;;;;5045926;28;20087;-52
2022/08/30 02:26:35;;;;;;;8.13;3.33;;;;;;;;;;5045995;28;20017;-52
2022/08/30 02:29:21;;;;;;;6.28;3.55;;;;;;;;;;5045836;28;20068;-51
2022/08/30 02:32:07;;;;;;;4.88;3.38;;;;;;;;;;5044579;28;20037;-53
2022/08/30 02:34:33;;;;;;;4.18;3.33;;;;;;;;;;5047127;28;20701;-52
2022/08/30 02:36:59;;;;;;;7.93;3.63;;;;;;;;;;5047686;28;20359;-53
2022/08/30 02:39:25;;;;;;;5.07;3.05;;;;;;;;;;5041419;28;20033;-53
2022/08/30 02:41:51;;;;;;;6.05;3.28;;;;;;;;;;5045319;28;20059;-51
2022/08/30 02:44:16;;;;;;;3.88;2.88;;;;;;;;;;5042656;28;20090;-56
2022/08/30 02:46:42;;;;;;;5.45;3.08;;;;;;;;;;5045697;28;20714;-52
2022/08/30 02:49:08;;;;;;;7.80;3.08;;;;;;;;;;5045319;28;20033;-51
2022/08/30 02:51:34;;;;;;;6.28;3.40;;;;;;;;;;5040489;28;20104;-54
2022/08/30 02:54:00;;;;;;;5.70;3.40;;;;;;;;;;5044192;28;20469;-55
2022/08/30 02:56:27;;;;;;;3.22;2.88;;;;;;;;;;5046592;28;20055;-54
2022/08/30 02:58:53;;;;;;;4.00;3.53;;;;;;;;;;5043903;28;20087;-52
2022/08/30 03:01:19;;;;;;;5.47;2.88;;;;;;;;;;5040752;28;20032;-50
2022/08/30 03:03:45;;;;;;;3.88;2.95;;;;;;;;;;5045064;28;20025;-52
2022/08/30 03:06:12;;;;;;;5.93;3.50;;;;;;;;;;5045222;28;20119;-54
2022/08/30 03:08:38;;;;;;;2.95;2.63;;;;;;;;;;5044587;28;20032;-54
2022/08/30 03:11:04;;;;;;;6.07;3.10;;;;;;;;;;5044291;28;20025;-53
2022/08/30 03:13:30;;;;;;;5.18;3.17;;;;;;;;;;5041085;28;20029;-51
2022/08/30 03:15:56;;;;;;;3.78;2.85;;;;;;;;;;5047403;28;20025;-53
2022/08/30 03:18:23;;;;;;;7.45;3.40;;;;;;;;;;5042955;28;20389;-51
2022/08/30 03:20:49;;;;;;;6.90;3.03;;;;;;;;;;5046450;28;20080;-54
2022/08/30 03:23:16;;;;;;;4.90;3.33;;;;;;;;;;5045435;28;20366;-52
2022/08/30 03:25:42;;;;;;;4.15;2.65;;;;;;;;;;5046738;28;20037;-53
2022/08/30 03:28:08;;;;;;;4.22;3.10;;;;;;;;;;5042903;28;20090;-52
2022/08/30 03:30:34;;;;;;;3.35;2.92;;;;;;;;;;5043579;28;20040;-56
2022/08/30 03:33:00;;;;;;;4.60;3.10;;;;;;;;;;5042438;28;20435;-49
2022/08/30 03:35:26;;;;;;;7.75;2.78;;;;;;;;;;5046102;28;20040;-52
2022/08/30 03:37:52;;;;;;;5.45;3.22;;;;;;;;;;5044979;28;20025;-54
2022/08/30 03:40:20;;;;;;;6.30;3.13;;;;;;;;;;5046022;28;20084;-50
2022/08/30 03:42:47;;;;;;;5.20;2.60;;;;;;;;;;5050289;28;20021;-52
2022/08/30 03:45:15;;;;;;;3.60;3.30;;;;;;;;;;5044772;28;20029;-50
2022/08/30 03:47:42;;;;;;;5.70;3.10;;;;;;;;;;5038570;28;20060;-50
2022/08/30 03:50:10;;;;;;;3.80;3.38;;;;;;;;;;5045424;28;20029;-53
2022/08/30 03:52:35;;;;;;;5.18;3.38;;;;;;;;;;5047784;28;20026;-52
2022/08/30 03:55:01;;;;;;;5.88;3.42;;;;;;;;;;5043423;28;22239;-53
2022/08/30 03:57:28;;;;;;;9.02;3.50;;;;;;;;;;5042915;28;20477;-53
2022/08/30 03:59:53;;;;;;;4.80;3.22;;;;;;;;;;5044487;28;20087;-51
2022/08/30 04:02:19;;;;;;;3.28;2.97;;;;;;;;;;5045227;28;20080;-55
2022/08/30 04:04:45;;;;;;;7.32;3.80;;;;;;;;;;5043879;28;20112;-55
2022/08/30 04:07:11;;;;;;;5.63;3.55;;;;;;;;;;5045309;28;20032;-51
2022/08/30 04:09:37;;;;;;;5.63;3.70;;;;;;;;;;5050509;28;20025;-52
2022/08/30 04:12:03;;;;;;;5.30;3.53;;;;;;;;;;5048651;28;20501;-57
2022/08/30 04:14:28;;;;;;;8.25;3.90;;;;;;;;;;5049223;28;20474;-53
2022/08/30 04:16:54;;;;;;;4.85;3.35;;;;;;;;;;5049835;28;20438;-56
2022/08/30 04:19:20;;;;;;;8.40;3.72;;;;;;;;;;5049938;28;20156;-51
2022/08/30 04:21:46;;;;;;;6.30;3.45;;;;;;;;;;5048705;28;20032;-54
2022/08/30 04:24:12;;;;;;;5.85;3.70;;;;;;;;;;5047897;28;20103;-55
2022/08/30 04:26:38;;;;;;;7.88;4.00;;;;;;;;;;5045654;28;20465;-54
2022/08/30 04:29:03;;;;;;;8.82;3.72;;;;;;;;;;5047696;28;20044;-53
2022/08/30 04:31:30;;;;;;;4.03;3.40;;;;;;;;;;5049249;28;20037;-54
2022/08/30 04:33:55;;;;;;;4.95;2.97;;;;;;;;;;5047808;28;20086;-52
2022/08/30 04:36:22;;;;;;;6.32;3.20;;;;;;;;;;5047290;28;20060;-54
2022/08/30 04:38:48;;;;;;;5.55;3.20;;;;;;;;;;5029815;28;20064;-52
2022/08/30 04:41:17;;;;;;;7.85;3.05;;;;;;;;;;5048298;28;20033;-53
2022/08/30 04:43:44;;;;;;;4.93;3.17;;;;;;;;;;5049597;28;20022;-54
2022/08/30 04:46:10;;;;;;;6.90;3.50;;;;;;;;;;5050153;28;20029;-53
2022/08/30 04:48:37;;;;;;;4.70;2.80;;;;;;;;;;5046424;28;20473;-54
2022/08/30 04:51:05;;;;;;;4.13;3.08;;;;;;;;;;5048311;28;20037;-57
2022/08/30 04:53:31;;;;;;;3.50;2.85;;;;;;;;;;5043598;28;20540;-53
2022/08/30 04:55:57;;;;;;;3.85;2.85;;;;;;;;;;5047405;28;20137;-52
2022/08/30 04:58:23;;;;;;;4.93;3.00;;;;;;;;;;5047946;28;20124;-54
2022/08/30 05:00:49;;;;;;;3.10;2.55;;;;;;;;;;5046482;28;20025;-55
2022/08/30 05:03:16;;;;;;;8.52;2.80;;;;;;;;;;5051077;28;20017;-52
2022/08/30 05:05:49;;;;;;;5.20;3.10;;;;;;;;;;5048839;28;20037;-54
2022/08/30 05:08:17;;;;;;;3.90;2.70;;;;;;;;;;5048072;28;20040;-51
2022/08/30 05:10:46;;;;;;;4.72;2.85;;;;;;;;;;5047962;28;20035;-53
2022/08/30 05:13:13;;;;;;;4.97;2.83;;;;;;;;;;5046968;28;20037;-56
2022/08/30 05:15:39;;;;;;;4.03;2.83;;;;;;;;;;5050563;28;20029;-52
2022/08/30 05:18:06;;;;;;;8.77;3.10;;;;;;;;;;5045712;28;20473;-54
2022/08/30 05:20:33;;;;;;;6.35;2.92;;;;;;;;;;5047636;28;20048;-55
2022/08/30 05:23:00;;;;;;;2.75;2.53;;;;;;;;;;5032750;28;20021;-53
2022/08/30 05:25:29;;;;;;;5.78;2.50;;;;;;;;;;5046644;28;20047;-54
2022/08/30 05:27:55;;;;;;;4.43;2.60;;;;;;;;;;5047197;28;20037;-52
2022/08/30 05:30:22;;;;;;;7.45;3.15;;;;;;;;;;5045451;28;20037;-55
2022/08/30 05:32:48;;;;;;;4.78;2.35;;;;;;;;;;5047549;28;20397;-51
2022/08/30 05:35:16;;;;;;;6.47;2.50;;;;;;;;;;5041990;28;20025;-53
2022/08/30 05:37:42;;;;;;;5.10;2.70;;;;;;;;;;5044623;28;20056;-57
2022/08/30 05:40:10;;;;;;;6.05;2.80;;;;;;;;;;5046784;28;20048;-55
2022/08/30 05:42:36;;;;;;;3.17;2.75;;;;;;;;;;5046825;28;20029;-55
2022/08/30 05:45:04;;;;;;;3.33;2.35;;;;;;;;;;5048975;28;20029;-52
2022/08/30 05:47:30;;;;;;;5.43;2.60;;;;;;;;;;5041569;28;20690;-51
2022/08/30 05:49:56;;;;;;;5.68;2.28;;;;;;;;;;5046872;28;20025;-52
2022/08/30 05:52:21;;;;;;;6.88;2.30;;;;;;;;;;5045487;28;20083;-50
2022/08/30 05:54:53;;;;;;;4.13;2.65;;;;;;;;;;5046607;28;20037;-55
2022/08/30 05:57:19;;;;;;;6.40;2.65;;;;;;;;;;5047278;28;20049;-55
2022/08/30 05:59:45;;;;;;;3.40;2.70;;;;;;;;;;5043807;28;20037;-56
2022/08/30 06:02:11;;;;;;;5.00;2.47;;;;;;;;;;5043781;28;20394;-51
2022/08/30 06:04:37;;;;;;;4.82;2.50;;;;;;;;;;5041977;28;20022;-54
2022/08/30 06:07:02;;;;;;;4.85;2.40;;;;;;;;;;5049744;28;20017;-49
2022/08/30 06:09:28;;;;;;;5.15;2.63;;;;;;;;;;5046377;28;20084;-52
2022/08/30 06:11:55;;;;;;;4.10;2.33;;;;;;;;;;5046126;28;20410;-52
2022/08/30 06:14:20;;;;;;;6.68;2.35;;;;;;;;;;5049084;28;20056;-51
2022/08/30 06:16:48;;;;;;;7.25;2.53;;;;;;;;;;5045706;28;20021;-54
2022/08/30 06:19:15;;;;;;;4.82;2.83;;;;;;;;;;5041074;28;20719;-52
2022/08/30 06:21:41;;;;;;;2.78;1.98;;;;;;;;;;5044368;28;20125;-53
2022/08/30 06:24:09;;;;;;;9.13;2.40;;;;;;;;;;5046229;28;20036;-52
2022/08/30 06:26:39;;;;;;;6.93;2.50;;;;;;;;;;5043863;28;20056;-53
2022/08/30 06:29:05;;;;;;;3.83;2.22;;;;;;;;;;5044944;28;20086;-51
2022/08/30 06:31:30;;;;;;;5.35;2.20;;;;;;;;;;5046114;28;20028;-52
2022/08/30 06:33:56;;;;;;;6.53;2.08;;;;;;;;;;5044743;28;20532;-56
2022/08/30 06:36:24;;;;;;;9.45;2.47;;;;;;;;;;5042896;28;20107;-54
2022/08/30 06:38:52;;;;;;;10.70;2.50;;;;;;;;;;5045594;28;20032;-55
2022/08/30 06:41:22;;;;;;;8.93;2.35;;;;;;;;;;5043589;28;20022;-56
2022/08/30 06:43:49;;;;;;;7.68;2.10;;;;;;;;;;5045876;28;20061;-55
2022/08/30 06:46:26;;;;;;;9.13;2.40;;;;;;;;;;5048655;28;20104;-55
2022/08/30 06:48:53;;;;;;;7.00;2.30;;;;;;;;;;5047081;28;20044;-53
2022/08/30 06:51:25;;;;;;;5.30;2.20;;;;;;;;;;5041285;28;20120;-54
2022/08/30 06:53:50;;;;;;;5.47;2.47;;;;;;;;;;5046437;28;20576;-52
2022/08/30 06:56:17;;;;;;;6.60;2.75;;;;;;;;;;5042699;28;20207;-52
2022/08/30 06:58:44;;;;;;;4.88;2.40;;;;;;;;;;5042364;28;20024;-54
2022/08/30 07:01:12;;;;;;;7.22;2.33;;;;;;;;;;5044080;28;20086;-52
2022/08/30 07:03:38;;;;;;;5.97;2.20;;;;;;;;;;5043838;28;20021;-52
2022/08/30 07:06:04;;;;;;;5.95;2.22;;;;;;;;;;5042198;28;20068;-52
2022/08/30 07:08:30;;;;;;;7.22;2.75;;;;;;;;;;5042750;28;20057;-56
2022/08/30 07:10:56;;;;;;;4.95;2.50;;;;;;;;;;5045149;28;20075;-51
2022/08/30 07:13:22;;;;;;;9.82;2.72;;;;;;;;;;5043251;28;20075;-50
2022/08/30 07:15:50;;;;;;;7.93;2.63;;;;;;;;;;5043835;28;20382;-52
2022/08/30 07:21:07;;;;;;;7.47;2.30;;;;;;;;;;5047327;28;20367;-51
2022/08/30 07:23:33;;;;;;;6.85;2.70;;;;;;;;;;5043376;28;20112;-52
2022/08/30 07:26:05;;;;;;;10.93;2.38;;;;;;;;;;5042526;28;20542;-56
2022/08/30 07:28:31;;;;;;;10.98;2.22;;;;;;;;;;5045566;28;20527;-52
2022/08/30 07:30:57;;;;;;;7.57;2.50;;;;;;;;;;5046754;28;20037;-54
2022/08/30 07:33:23;;;;;;;9.25;2.60;;;;;;;;;;5043748;28;20413;-55
2022/08/30 07:35:48;;;;;;;6.85;2.67;;;;;;;;;;5042764;28;20436;-56
2022/08/30 07:38:14;;;;;;;5.68;2.30;;;;;;;;;;5025548;28;20029;-54
2022/08/30 07:40:40;;;;;;;6.55;2.28;;;;;;;;;;5043285;28;20072;-56
2022/08/30 07:43:06;;;;;;;5.97;2.80;;;;;;;;;;5047805;28;20037;-54
2022/08/30 07:45:32;;;;;;;8.07;1.88;;;;;;;;;;5043581;28;20078;-51
2022/08/30 07:47:58;;;;;;;15.00;2.35;;;;;;;;;;5047660;28;20032;-54
2022/08/30 07:50:23;;;;;;;8.68;2.45;;;;;;;;;;5048428;28;20107;-54
2022/08/30 07:52:49;;;;;;;5.70;2.28;;;;;;;;;;5047201;28;20087;-58
2022/08/30 07:55:16;;;;;;;8.43;2.95;;;;;;;;;;5048961;28;20033;-52
2022/08/30 07:57:41;;;;;;;10.60;2.72;;;;;;;;;;5048557;28;20029;-52
2022/08/30 08:00:08;;;;;;;5.80;2.50;;;;;;;;;;5044434;28;20119;-55
2022/08/30 08:02:35;;;;;;;3.92;2.40;;;;;;;;;;5050937;28;20029;-55
2022/08/30 08:05:04;;;;;;;4.70;2.10;;;;;;;;;;5044055;28;20021;-52
2022/08/30 08:07:31;;;;;;;5.72;2.08;;;;;;;;;;5048062;28;20039;-54
2022/08/30 08:09:57;;;;;;;4.43;2.92;;;;;;;;;;5046655;28;20075;-54
2022/08/30 08:12:22;;;;;;;7.68;2.80;;;;;;;;;;5049007;28;20794;-56
2022/08/30 08:14:49;;;;;;;8.35;2.58;;;;;;;;;;5048333;28;20083;-52
2022/08/30 08:17:15;;;;;;;9.63;2.78;;;;;;;;;;5051003;28;20035;-54
2022/08/30 08:19:40;;;;;;;8.85;2.35;;;;;;;;;;5046733;28;20123;-53
2022/08/30 08:22:06;;;;;;;7.47;2.35;;;;;;;;;;5048896;28;20473;-56
2022/08/30 08:24:32;;;;;;;6.05;2.50;;;;;;;;;;5050309;28;20025;-52
2022/08/30 08:26:58;;;;;;;8.98;2.53;;;;;;;;;;5049309;28;20374;-55
2022/08/30 08:29:23;;;;;;;7.22;2.30;;;;;;;;;;5048952;28;20041;-53
2022/08/30 08:31:49;;;;;;;7.80;2.47;;;;;;;;;;5049025;28;20013;-55
2022/08/30 08:34:17;;;;;;;6.18;2.45;;;;;;;;;;5048169;28;20094;-53
2022/08/30 08:36:43;;;;;;;6.25;2.17;;;;;;;;;;5048036;28;20064;-54
2022/08/30 08:39:09;;;;;;;7.72;2.22;;;;;;;;;;5049431;28;20061;-55
2022/08/30 08:41:53;;;;;;;8.73;2.20;;;;;;;;;;5047038;28;20025;-52
2022/08/30 08:44:46;;;;;;;6.75;2.25;;;;;;;;;;5030440;28;20029;-54
2022/08/30 08:47:26;;;;;;;5.90;2.10;;;;;;;;;;5048285;28;20099;-54
2022/08/30 08:49:57;;;;;;;5.43;2.00;;;;;;;;;;5046809;28;20045;-52
2022/08/30 08:55:19;;;;;;;7.65;2.00;;;;;;;;;;5045948;28;20448;-53
2022/08/30 08:57:46;;;;;;;5.68;1.70;;;;;;;;;;5047672;28;20082;-52
2022/08/30 09:00:14;;;;;;;8.88;2.17;;;;;;;;;;5041730;28;20440;-55
2022/08/30 09:02:44;;;;;;;8.45;2.20;;;;;;;;;;5048680;28;20452;-49
2022/08/30 09:05:14;;;;;;;6.32;2.25;;;;;;;;;;5047411;28;20025;-54
2022/08/30 09:07:47;;;;;;;2.90;1.70;;;;;;;;;;5047760;28;20037;-52
2022/08/30 09:10:13;;;;;;;4.82;2.10;;;;;;;;;;5043693;28;20029;-50
2022/08/30 09:12:39;;;;;;;4.22;1.80;;;;;;;;;;5029693;28;20024;-54
2022/08/30 09:15:15;;;;;;;4.35;1.80;;;;;;;;;;5046016;28;21006;-51
2022/08/30 09:18:02;;;;;;;6.85;2.50;;;;;;;;;;5042802;28;20024;-47
2022/08/30 09:20:36;;;;;;;6.13;2.03;;;;;;;;;;5044519;28;20039;-52
2022/08/30 09:23:22;;;;;;;3.05;2.03;;;;;;;;;;5048949;28;20032;-50
2022/08/30 09:26:06;;;;;;;5.30;2.50;;;;;;;;;;5047302;28;20040;-52
2022/08/30 09:28:34;;;;;;;8.70;1.77;;;;;;;;;;5047309;28;20021;-50
2022/08/30 09:31:17;;;;;;;2.97;2.00;;;;;;;;;;5047020;28;20017;-50
2022/08/30 09:34:04;;;;;;;6.40;2.40;;;;;;;;;;5044316;28;20017;-52
2022/08/30 09:36:34;;;;;;;5.07;2.00;;;;;;;;;;5047614;28;20025;-52
2022/08/30 09:39:19;;;;;;;4.90;1.88;;;;;;;;;;5042590;28;20124;-53
2022/08/30 09:41:49;;;;;;;3.72;2.13;;;;;;;;;;5044523;28;20474;-52
2022/08/30 09:44:23;;;;;;;7.68;2.10;;;;;;;;;;5043312;28;20037;-52
2022/08/30 09:46:49;;;;;;;4.65;2.10;;;;;;;;;;5047619;28;20112;-53
2022/08/30 09:49:29;;;;;;;6.13;1.77;;;;;;;;;;5043655;28;20099;-54
2022/08/30 09:52:33;;;;;;;5.32;2.10;;;;;;;;;;5043135;28;20039;-51
2022/08/30 09:55:24;;;;;;;4.25;2.13;;;;;;;;;;5047590;28;20413;-49
2022/08/30 09:57:59;;;;;;;4.78;2.20;;;;;;;;;;5043102;28;20033;-55
2022/08/30 10:00:30;;;;;;;4.00;1.90;;;;;;;;;;5042171;28;20045;-51
2022/08/30 10:03:50;;;;;;;3.25;1.83;;;;;;;;;;5047017;28;20108;-53
2022/08/30 10:06:34;;;;;;;4.35;1.73;;;;;;;;;;4993906;28;20038;-53
2022/08/30 10:09:10;;;;;;;3.25;1.75;;;;;;;;;;5000555;28;20092;-54
2022/08/30 10:11:59;;;;;;;6.43;1.95;;;;;;;;;;5002173;28;20056;-53
2022/08/30 10:14:42;;;;;;;4.63;1.90;;;;;;;;;;5001619;28;20052;-55
2022/08/30 10:17:37;;;;;;;4.60;1.98;;;;;;;;;;5005443;28;20550;-53
2022/08/30 10:20:33;;;;;;;3.45;2.05;;;;;;;;;;5005462;28;20037;-52
2022/08/30 10:23:15;;;;;;;7.53;1.77;;;;;;;;;;5001767;28;20030;-52
2022/08/30 10:25:47;;;;;;;4.38;2.25;;;;;;;;;;5003083;28;20032;-54
2022/08/30 10:28:18;;;;;;;5.05;2.10;;;;;;;;;;5003296;28;20034;-52
2022/08/30 10:30:54;;;;;;;8.02;1.90;;;;;;;;;;5005330;28;20045;-51
2022/08/30 10:33:25;;;;;;;5.20;1.70;;;;;;;;;;4996413;28;20048;-55
2022/08/30 10:35:57;;;;;;;4.53;2.03;;;;;;;;;;5001878;28;20040;-52
2022/08/30 10:38:39;;;;;;;7.13;1.88;;;;;;;;;;5001066;28;20068;-51
2022/08/30 10:41:27;;;;;;;6.70;2.47;;;;;;;;;;5031090;28;20051;-54
2022/08/30 10:44:14;;;;;;;3.08;1.85;;;;;;;;;;5044943;28;20060;-54
2022/08/30 10:47:04;;;;;;;4.45;1.60;;;;;;;;;;5043654;28;20029;-49
2022/08/30 10:49:45;;;;;;;4.45;2.00;;;;;;;;;;5044224;28;20037;-54
2022/08/30 10:52:10;;;;;;;3.85;2.03;;;;;;;;;;5044407;28;20029;-48
2022/08/30 10:54:49;;;;;;;7.97;2.25;;;;;;;;;;5048110;28;20040;-51
2022/08/30 10:57:16;;;;;;;6.82;1.77;;;;;;;;;;5045068;28;20040;-51
2022/08/30 10:59:56;;;;;;;4.13;1.73;;;;;;;;;;5043188;28;20136;-52
2022/08/30 11:02:34;;;;;;;4.05;1.92;;;;;;;;;;5044783;28;20029;-52
2022/08/30 11:05:42;;;;;;;4.88;2.20;;;;;;;;;;5044354;28;20043;-50
2022/08/30 11:08:29;;;;;;;4.40;1.95;;;;;;;;;;5043082;28;20025;-53
2022/08/30 11:11:11;;;;;;;5.40;2.00;;;;;;;;;;5045563;28;20047;-51
2022/08/30 11:13:40;;;;;;;4.03;2.05;;;;;;;;;;5045528;28;20025;-51
2022/08/30 11:16:14;;;;;;;5.97;1.63;;;;;;;;;;5040822;28;20159;-52
2022/08/30 11:18:47;;;;;;;2.97;1.80;;;;;;;;;;5042647;28;20044;-52
2022/08/30 11:21:34;;;;;;;3.53;1.83;;;;;;;;;;5046312;28;20025;-54
2022/08/30 11:24:27;;;;;;;3.13;1.70;;;;;;;;;;5036585;28;20040;-53
2022/08/30 11:26:59;;;;;;;5.90;1.80;;;;;;;;;;5038974;28;20072;-53
2022/08/30 11:29:25;;;;;;;6.88;2.08;;;;;;;;;;5045232;28;20043;-52
2022/08/30 11:31:50;;;;;;;4.47;2.00;;;;;;;;;;5046292;28;20103;-50
2022/08/30 11:34:45;;;;;;;4.22;1.98;;;;;;;;;;5043483;28;20021;-54
2022/08/30 11:37:30;;;;;;;5.28;1.95;;;;;;;;;;5041816;28;20552;-48
2022/08/30 11:39:58;;;;;;;5.03;2.10;;;;;;;;;;5043993;28;20492;-47
2022/08/30 11:42:44;;;;;;;3.33;1.88;;;;;;;;;;5043481;28;20083;-54
2022/08/30 11:45:22;;;;;;;3.08;1.80;;;;;;;;;;5046891;28;20120;-55
2022/08/30 11:47:56;;;;;;;3.75;2.20;;;;;;;;;;5045958;28;20040;-52
2022/08/30 11:50:54;;;;;;;5.97;2.08;;;;;;;;;;5046734;28;20040;-49
2022/08/30 11:53:46;;;;;;;3.97;1.98;;;;;;;;;;5041033;28;20036;-49
2022/08/30 11:56:23;;;;;;;2.95;1.70;;;;;;;;;;5045015;28;20429;-50
2022/08/30 11:59:00;;;;;;;4.50;1.90;;;;;;;;;;5043765;28;20044;-51
2022/08/30 12:01:26;;;;;;;6.43;2.13;;;;;;;;;;5040674;28;20063;-49
2022/08/30 12:04:08;;;;;;;4.47;1.90;;;;;;;;;;5043223;28;20069;-54
2022/08/30 12:06:40;;;;;;;9.10;2.00;;;;;;;;;;5041500;28;20047;-55
2022/08/30 12:09:23;;;;;;;6.93;1.95;;;;;;;;;;5046518;28;20431;-53
2022/08/30 12:12:08;;;;;;;9.63;2.00;;;;;;;;;;5041746;28;20064;-57
2022/08/30 12:14:46;;;;;;;7.43;2.22;;;;;;;;;;5041700;28;20036;-55
2022/08/30 12:20:10;;;;;;;4.95;2.38;;;;;;;;;;5045104;28;20505;-54
2022/08/30 12:22:36;;;;;;;9.18;2.95;;;;;;;;;;5042070;28;20072;-53
2022/08/30 12:25:16;;;;;;;6.15;2.60;;;;;;;;;;5041342;28;20056;-54
2022/08/30 12:27:41;;;;;;;3.60;2.10;;;;;;;;;;5048922;28;20033;-52
2022/08/30 12:30:08;;;;;;;6.80;3.13;;;;;;;;;;5050527;28;20020;-52
2022/08/30 12:32:44;;;;;;;9.73;2.92;;;;;;;;;;5048128;28;20525;-51
2022/08/30 12:35:18;;;;;;;6.32;2.10;;;;;;;;;;5022701;28;20073;-52
2022/08/30 12:37:58;;;;;;;7.85;2.00;;;;;;;;;;5037395;28;20087;-52
2022/08/30 12:40:25;;;;;;;5.95;2.42;;;;;;;;;;5045351;28;20043;-56
2022/08/30 12:43:04;;;;;;;4.65;2.05;;;;;;;;;;5047441;28;20021;-55
2022/08/30 12:45:36;;;;;;;5.07;2.15;;;;;;;;;;5048879;28;20079;-53
2022/08/30 12:48:06;;;;;;;7.47;2.13;;;;;;;;;;5046288;28;20033;-51
2022/08/30 12:50:43;;;;;;;6.55;2.40;;;;;;;;;;5047022;28;20035;-53
2022/08/30 12:53:12;;;;;;;6.50;2.22;;;;;;;;;;5047295;28;20025;-53
2022/08/30 12:55:59;;;;;;;2.08;1.60;;;;;;;;;;5047275;28;20041;-53
2022/08/30 12:58:35;;;;;;;7.30;2.40;;;;;;;;;;5045114;28;20043;-53
2022/08/30 13:01:27;;;;;;;3.83;2.10;;;;;;;;;;5059834;28;20517;-54
2022/08/30 13:04:16;;;;;;;6.45;1.90;;;;;;;;;;5048346;28;20058;-54
2022/08/30 13:07:01;;;;;;;8.60;2.45;;;;;;;;;;5046066;28;20381;-52
2022/08/30 13:09:37;;;;;;;5.50;2.20;;;;;;;;;;5045521;28;20805;-54
2022/08/30 13:12:08;;;;;;;5.10;2.10;;;;;;;;;;5045890;28;20021;-54
2022/08/30 13:14:44;;;;;;;4.93;2.05;;;;;;;;;;5047980;28;20486;-50
2022/08/30 13:17:21;;;;;;;5.28;2.60;;;;;;;;;;5049235;28;20117;-53
2022/08/30 13:19:58;;;;;;;4.63;2.28;;;;;;;;;;5048495;28;20032;-53
2022/08/30 13:22:35;;;;;;;4.80;2.00;;;;;;;;;;5045195;28;20052;-56
2022/08/30 13:25:01;;;;;;;6.00;2.67;;;;;;;;;;5045836;28;20039;-57
2022/08/30 13:27:29;;;;;;;6.38;2.03;;;;;;;;;;5046944;28;20043;-56
2022/08/30 13:29:55;;;;;;;5.07;2.30;;;;;;;;;;5043711;28;20032;-57
2022/08/30 13:32:21;;;;;;;5.05;2.25;;;;;;;;;;5046144;28;20061;-52
2022/08/30 13:34:47;;;;;;;4.07;2.20;;;;;;;;;;5046914;28;20028;-55
2022/08/30 13:37:17;;;;;;;6.63;2.20;;;;;;;;;;5046543;28;20041;-56
2022/08/30 13:39:43;;;;;;;4.22;2.17;;;;;;;;;;5046321;28;20488;-55
2022/08/30 13:42:09;;;;;;;7.25;2.03;;;;;;;;;;5043570;28;20047;-57
2022/08/30 13:44:35;;;;;;;7.53;2.15;;;;;;;;;;5044771;28;20025;-57
2022/08/30 13:47:02;;;;;;;5.82;2.08;;;;;;;;;;5047559;28;20056;-55
2022/08/30 13:49:31;;;;;;;4.18;2.78;;;;;;;;;;5044613;28;20671;-57
2022/08/30 13:51:57;;;;;;;4.53;1.98;;;;;;;;;;5046816;28;20040;-56
2022/08/30 13:54:23;;;;;;;3.28;1.98;;;;;;;;;;5044840;28;20040;-57
2022/08/30 13:56:51;;;;;;;3.95;2.00;;;;;;;;;;5047623;28;20524;-54
2022/08/30 13:59:18;;;;;;;3.47;2.17;;;;;;;;;;5042576;28;20025;-53
2022/08/30 14:01:44;;;;;;;5.53;2.13;;;;;;;;;;5045007;28;20020;-51
2022/08/30 14:04:10;;;;;;;9.90;2.22;;;;;;;;;;5046432;28;20404;-54
2022/08/30 14:06:36;;;;;;;6.20;2.20;;;;;;;;;;5044574;28;20148;-56
2022/08/30 14:09:05;;;;;;;3.75;2.10;;;;;;;;;;5047857;28;20350;-57
2022/08/30 14:11:32;;;;;;;7.38;2.47;;;;;;;;;;5046895;28;20033;-55
2022/08/30 14:13:58;;;;;;;3.45;2.33;;;;;;;;;;5047061;28;20064;-57
2022/08/30 14:16:24;;;;;;;2.45;1.67;;;;;;;;;;5041859;28;20057;-56
2022/08/30 14:18:50;;;;;;;6.35;1.98;;;;;;;;;;5045568;28;20036;-53
2022/08/30 14:21:16;;;;;;;2.70;2.10;;;;;;;;;;5046394;28;20026;-55
2022/08/30 14:23:42;;;;;;;6.13;2.55;;;;;;;;;;5047069;28;20509;-55
2022/08/30 14:26:33;;;;;;;5.40;2.15;;;;;;;;;;5045053;28;20041;-53
2022/08/30 14:29:05;;;;;;;7.03;2.30;;;;;;;;;;5035788;28;20511;-56
2022/08/30 14:31:31;;;;;;;6.22;2.60;;;;;;;;;;5044772;28;21245;-56
2022/08/30 14:33:56;;;;;;;4.05;2.20;;;;;;;;;;5045399;28;20037;-55
2022/08/30 14:36:22;;;;;;;4.05;2.13;;;;;;;;;;5046042;28;20025;-54
2022/08/30 14:38:49;;;;;;;6.50;2.17;;;;;;;;;;5039189;28;20029;-56
2022/08/30 14:41:15;;;;;;;9.68;3.08;;;;;;;;;;5047803;28;20382;-53
2022/08/30 14:43:40;;;;;;;9.13;2.47;;;;;;;;;;5044970;28;20037;-56
2022/08/30 14:46:07;;;;;;;5.88;2.28;;;;;;;;;;5042769;28;20029;-51
2022/08/30 14:48:35;;;;;;;4.47;2.20;;;;;;;;;;5044029;28;20047;-56
2022/08/30 14:51:01;;;;;;;5.00;2.00;;;;;;;;;;5046304;28;20037;-55
2022/08/30 14:53:27;;;;;;;4.72;2.38;;;;;;;;;;5042414;28;20029;-55
2022/08/30 14:55:53;;;;;;;6.15;2.50;;;;;;;;;;5047724;28;20052;-56
2022/08/30 14:58:19;;;;;;;4.35;2.17;;;;;;;;;;5045549;28;20384;-54
2022/08/30 15:00:51;;;;;;;3.22;2.00;;;;;;;;;;5045216;28;20017;-51
2022/08/30 15:03:17;;;;;;;3.00;2.00;;;;;;;;;;5045670;28;20108;-56
2022/08/30 15:05:48;;;;;;;4.68;2.13;;;;;;;;;;5045121;28;20025;-53
2022/08/30 15:08:14;;;;;;;3.45;2.42;;;;;;;;;;5045813;28;20108;-53
2022/08/30 15:10:40;;;;;;;3.00;1.92;;;;;;;;;;5045919;28;20116;-54